sensor_id;sensor_type;location;lat;lon;timestamp;P1;durP1;ratioP1;P2;durP2;ratioP2
7361;SDS011;3721;44.490;11.220;2022-08-19T00:00:34;50.33;;;25.00;;
7361;SDS011;3721;44.490;11.220;2022-08-19T00:03:03;61.40;;;33.27;;
7361;SDS011;3721;44.490;11.220;2022-08-19T00:05:30;57.20;;;27.37;;
7361;SDS011;3721;44.490;11.220;2022-08-19T00:07:56;46.63;;;24.70;;
7361;SDS011;3721;44.490;11.220;2022-08-19T00:10:22;57.03;;;29.30;;
7361;SDS011;3721;44.490;11.220;2022-08-19T00:12:49;46.80;;;24.60;;
7361;SDS011;3721;44.490;11.220;2022-08-19T00:15:16;60.87;;;27.63;;
7361;SDS011;3721;44.490;11.220;2022-08-19T00:17:44;49.20;;;24.93;;
7361;SDS011;3721;44.490;11.220;2022-08-19T00:20:12;48.93;;;23.53;;
7361;SDS011;3721;44.490;11.220;2022-08-19T00:22:43;49.50;;;23.80;;
7361;SDS011;3721;44.490;11.220;2022-08-19T00:25:10;62.40;;;26.80;;
7361;SDS011;3721;44.490;11.220;2022-08-19T00:27:36;77.47;;;28.20;;
7361;SDS011;3721;44.490;11.220;2022-08-19T00:30:03;61.60;;;28.83;;
7361;SDS011;3721;44.490;11.220;2022-08-19T00:32:31;52.87;;;24.83;;
7361;SDS011;3721;44.490;11.220;2022-08-19T00:34:59;44.13;;;24.43;;
7361;SDS011;3721;44.490;11.220;2022-08-19T00:37:25;45.23;;;24.93;;
7361;SDS011;3721;44.490;11.220;2022-08-19T00:39:51;46.60;;;25.13;;
7361;SDS011;3721;44.490;11.220;2022-08-19T00:42:18;47.97;;;26.13;;
7361;SDS011;3721;44.490;11.220;2022-08-19T00:44:44;46.57;;;23.20;;
7361;SDS011;3721;44.490;11.220;2022-08-19T00:47:10;45.17;;;23.10;;
7361;SDS011;3721;44.490;11.220;2022-08-19T00:49:39;37.63;;;21.20;;
7361;SDS011;3721;44.490;11.220;2022-08-19T00:52:35;37.50;;;20.67;;
7361;SDS011;3721;44.490;11.220;2022-08-19T00:55:07;34.53;;;19.53;;
7361;SDS011;3721;44.490;11.220;2022-08-19T00:57:38;31.67;;;19.43;;
7361;SDS011;3721;44.490;11.220;2022-08-19T01:00:11;30.57;;;19.97;;
7361;SDS011;3721;44.490;11.220;2022-08-19T01:02:40;29.80;;;17.67;;
7361;SDS011;3721;44.490;11.220;2022-08-19T01:05:11;30.37;;;18.67;;
7361;SDS011;3721;44.490;11.220;2022-08-19T01:07:41;34.37;;;18.87;;
7361;SDS011;3721;44.490;11.220;2022-08-19T01:10:09;31.27;;;20.03;;
7361;SDS011;3721;44.490;11.220;2022-08-19T01:12:40;25.50;;;16.27;;
7361;SDS011;3721;44.490;11.220;2022-08-19T01:15:07;24.90;;;15.03;;
7361;SDS011;3721;44.490;11.220;2022-08-19T01:17:35;22.17;;;14.57;;
7361;SDS011;3721;44.490;11.220;2022-08-19T01:20:03;27.13;;;15.37;;
7361;SDS011;3721;44.490;11.220;2022-08-19T01:22:36;29.73;;;15.77;;
7361;SDS011;3721;44.490;11.220;2022-08-19T01:25:19;16.60;;;9.60;;
7361;SDS011;3721;44.490;11.220;2022-08-19T01:27:48;15.70;;;8.20;;
7361;SDS011;3721;44.490;11.220;2022-08-19T01:30:17;10.80;;;6.57;;
7361;SDS011;3721;44.490;11.220;2022-08-19T01:32:49;13.27;;;5.77;;
7361;SDS011;3721;44.490;11.220;2022-08-19T01:35:16;9.60;;;4.67;;
7361;SDS011;3721;44.490;11.220;2022-08-19T01:37:44;9.73;;;4.53;;
7361;SDS011;3721;44.490;11.220;2022-08-19T01:40:19;10.90;;;5.23;;
7361;SDS011;3721;44.490;11.220;2022-08-19T01:42:50;10.83;;;4.20;;
7361;SDS011;3721;44.490;11.220;2022-08-19T01:45:18;11.13;;;4.23;;
7361;SDS011;3721;44.490;11.220;2022-08-19T01:47:45;9.13;;;3.80;;
7361;SDS011;3721;44.490;11.220;2022-08-19T01:50:11;10.43;;;3.37;;
7361;SDS011;3721;44.490;11.220;2022-08-19T01:52:38;8.97;;;3.33;;
7361;SDS011;3721;44.490;11.220;2022-08-19T01:55:07;8.20;;;3.03;;
7361;SDS011;3721;44.490;11.220;2022-08-19T01:57:35;9.03;;;3.13;;
7361;SDS011;3721;44.490;11.220;2022-08-19T02:00:04;6.50;;;3.13;;
7361;SDS011;3721;44.490;11.220;2022-08-19T02:02:32;7.43;;;3.63;;
7361;SDS011;3721;44.490;11.220;2022-08-19T02:04:58;7.60;;;3.50;;
7361;SDS011;3721;44.490;11.220;2022-08-19T02:07:24;8.23;;;3.60;;
7361;SDS011;3721;44.490;11.220;2022-08-19T02:09:50;5.73;;;3.57;;
7361;SDS011;3721;44.490;11.220;2022-08-19T02:12:15;10.70;;;3.50;;
7361;SDS011;3721;44.490;11.220;2022-08-19T02:14:41;9.53;;;3.40;;
7361;SDS011;3721;44.490;11.220;2022-08-19T02:17:07;7.53;;;3.20;;
7361;SDS011;3721;44.490;11.220;2022-08-19T02:19:33;8.80;;;3.30;;
7361;SDS011;3721;44.490;11.220;2022-08-19T02:21:59;6.80;;;3.43;;
7361;SDS011;3721;44.490;11.220;2022-08-19T02:24:26;10.13;;;3.40;;
7361;SDS011;3721;44.490;11.220;2022-08-19T02:26:52;10.27;;;3.87;;
7361;SDS011;3721;44.490;11.220;2022-08-19T02:29:18;12.40;;;3.97;;
7361;SDS011;3721;44.490;11.220;2022-08-19T02:31:44;9.53;;;3.77;;
7361;SDS011;3721;44.490;11.220;2022-08-19T02:34:10;8.87;;;3.53;;
7361;SDS011;3721;44.490;11.220;2022-08-19T02:36:36;9.37;;;3.60;;
7361;SDS011;3721;44.490;11.220;2022-08-19T02:39:02;12.43;;;3.70;;
7361;SDS011;3721;44.490;11.220;2022-08-19T02:41:29;7.53;;;3.83;;
7361;SDS011;3721;44.490;11.220;2022-08-19T02:43:57;10.60;;;3.90;;
7361;SDS011;3721;44.490;11.220;2022-08-19T02:46:26;11.83;;;4.10;;
7361;SDS011;3721;44.490;11.220;2022-08-19T02:49:03;10.43;;;3.73;;
7361;SDS011;3721;44.490;11.220;2022-08-19T02:51:34;8.43;;;4.03;;
7361;SDS011;3721;44.490;11.220;2022-08-19T02:54:02;7.20;;;3.40;;
7361;SDS011;3721;44.490;11.220;2022-08-19T02:56:29;8.63;;;3.67;;
7361;SDS011;3721;44.490;11.220;2022-08-19T02:58:56;9.10;;;3.80;;
7361;SDS011;3721;44.490;11.220;2022-08-19T03:01:27;9.67;;;3.80;;
7361;SDS011;3721;44.490;11.220;2022-08-19T03:03:57;12.93;;;3.70;;
7361;SDS011;3721;44.490;11.220;2022-08-19T03:06:28;12.57;;;3.70;;
7361;SDS011;3721;44.490;11.220;2022-08-19T03:08:55;7.87;;;3.03;;
7361;SDS011;3721;44.490;11.220;2022-08-19T03:11:22;10.40;;;3.80;;
7361;SDS011;3721;44.490;11.220;2022-08-19T03:13:50;7.70;;;3.10;;
7361;SDS011;3721;44.490;11.220;2022-08-19T03:16:17;10.33;;;3.67;;
7361;SDS011;3721;44.490;11.220;2022-08-19T03:18:44;12.37;;;4.30;;
7361;SDS011;3721;44.490;11.220;2022-08-19T03:21:14;8.47;;;2.93;;
7361;SDS011;3721;44.490;11.220;2022-08-19T03:23:42;7.43;;;3.13;;
7361;SDS011;3721;44.490;11.220;2022-08-19T03:26:07;12.00;;;3.10;;
7361;SDS011;3721;44.490;11.220;2022-08-19T03:28:33;8.57;;;2.87;;
7361;SDS011;3721;44.490;11.220;2022-08-19T03:31:00;8.17;;;3.37;;
7361;SDS011;3721;44.490;11.220;2022-08-19T03:33:29;8.50;;;2.60;;
7361;SDS011;3721;44.490;11.220;2022-08-19T03:38:42;11.67;;;3.67;;
7361;SDS011;3721;44.490;11.220;2022-08-19T03:41:12;12.80;;;3.30;;
7361;SDS011;3721;44.490;11.220;2022-08-19T03:43:42;5.17;;;2.60;;
7361;SDS011;3721;44.490;11.220;2022-08-19T03:46:11;10.47;;;2.90;;
7361;SDS011;3721;44.490;11.220;2022-08-19T03:48:39;8.93;;;3.13;;
7361;SDS011;3721;44.490;11.220;2022-08-19T03:51:07;10.33;;;3.20;;
7361;SDS011;3721;44.490;11.220;2022-08-19T03:53:40;7.30;;;2.83;;
7361;SDS011;3721;44.490;11.220;2022-08-19T03:56:08;7.77;;;2.90;;
7361;SDS011;3721;44.490;11.220;2022-08-19T03:58:35;8.53;;;3.30;;
7361;SDS011;3721;44.490;11.220;2022-08-19T04:01:02;9.00;;;3.20;;
7361;SDS011;3721;44.490;11.220;2022-08-19T04:03:33;9.80;;;2.80;;
7361;SDS011;3721;44.490;11.220;2022-08-19T04:06:09;7.80;;;3.30;;
7361;SDS011;3721;44.490;11.220;2022-08-19T04:08:40;10.53;;;3.00;;
7361;SDS011;3721;44.490;11.220;2022-08-19T04:11:17;11.33;;;3.83;;
7361;SDS011;3721;44.490;11.220;2022-08-19T04:13:46;12.43;;;3.77;;
7361;SDS011;3721;44.490;11.220;2022-08-19T04:16:12;10.47;;;4.63;;
7361;SDS011;3721;44.490;11.220;2022-08-19T04:18:39;11.00;;;3.57;;
7361;SDS011;3721;44.490;11.220;2022-08-19T04:21:06;9.90;;;3.10;;
7361;SDS011;3721;44.490;11.220;2022-08-19T04:23:33;16.90;;;3.53;;
7361;SDS011;3721;44.490;11.220;2022-08-19T04:26:01;11.83;;;3.37;;
7361;SDS011;3721;44.490;11.220;2022-08-19T04:28:27;8.93;;;3.57;;
7361;SDS011;3721;44.490;11.220;2022-08-19T04:30:54;9.10;;;3.27;;
7361;SDS011;3721;44.490;11.220;2022-08-19T04:33:21;8.60;;;3.13;;
7361;SDS011;3721;44.490;11.220;2022-08-19T04:35:48;8.67;;;3.23;;
7361;SDS011;3721;44.490;11.220;2022-08-19T04:38:17;9.13;;;3.50;;
7361;SDS011;3721;44.490;11.220;2022-08-19T04:40:45;6.93;;;3.27;;
7361;SDS011;3721;44.490;11.220;2022-08-19T04:43:31;15.63;;;3.53;;
7361;SDS011;3721;44.490;11.220;2022-08-19T04:45:58;8.00;;;3.33;;
7361;SDS011;3721;44.490;11.220;2022-08-19T04:48:33;12.90;;;3.67;;
7361;SDS011;3721;44.490;11.220;2022-08-19T04:50:59;12.63;;;4.30;;
7361;SDS011;3721;44.490;11.220;2022-08-19T04:53:26;12.93;;;3.50;;
7361;SDS011;3721;44.490;11.220;2022-08-19T04:55:57;8.73;;;3.70;;
7361;SDS011;3721;44.490;11.220;2022-08-19T04:58:26;12.13;;;3.90;;
7361;SDS011;3721;44.490;11.220;2022-08-19T05:00:53;7.60;;;3.30;;
7361;SDS011;3721;44.490;11.220;2022-08-19T05:03:19;10.73;;;3.90;;
7361;SDS011;3721;44.490;11.220;2022-08-19T05:05:46;9.63;;;3.67;;
7361;SDS011;3721;44.490;11.220;2022-08-19T05:08:16;17.87;;;3.90;;
7361;SDS011;3721;44.490;11.220;2022-08-19T05:10:44;9.07;;;3.60;;
7361;SDS011;3721;44.490;11.220;2022-08-19T05:13:16;13.27;;;4.07;;
7361;SDS011;3721;44.490;11.220;2022-08-19T05:15:44;12.00;;;3.90;;
7361;SDS011;3721;44.490;11.220;2022-08-19T05:18:17;9.17;;;4.10;;
7361;SDS011;3721;44.490;11.220;2022-08-19T05:21:05;15.80;;;4.00;;
7361;SDS011;3721;44.490;11.220;2022-08-19T05:23:53;11.93;;;4.43;;
7361;SDS011;3721;44.490;11.220;2022-08-19T05:26:19;23.17;;;6.10;;
7361;SDS011;3721;44.490;11.220;2022-08-19T05:28:45;14.10;;;4.30;;
7361;SDS011;3721;44.490;11.220;2022-08-19T05:31:10;18.73;;;4.73;;
7361;SDS011;3721;44.490;11.220;2022-08-19T05:33:37;13.50;;;4.90;;
7361;SDS011;3721;44.490;11.220;2022-08-19T05:36:04;16.93;;;6.30;;
7361;SDS011;3721;44.490;11.220;2022-08-19T05:38:32;12.23;;;4.97;;
7361;SDS011;3721;44.490;11.220;2022-08-19T05:40:59;12.30;;;6.17;;
7361;SDS011;3721;44.490;11.220;2022-08-19T05:43:24;21.10;;;6.20;;
7361;SDS011;3721;44.490;11.220;2022-08-19T05:45:50;14.90;;;5.13;;
7361;SDS011;3721;44.490;11.220;2022-08-19T05:48:16;6.93;;;3.83;;
7361;SDS011;3721;44.490;11.220;2022-08-19T05:50:45;11.83;;;3.97;;
7361;SDS011;3721;44.490;11.220;2022-08-19T05:53:11;10.57;;;5.17;;
7361;SDS011;3721;44.490;11.220;2022-08-19T05:55:39;8.80;;;4.50;;
7361;SDS011;3721;44.490;11.220;2022-08-19T05:58:05;9.83;;;4.93;;
7361;SDS011;3721;44.490;11.220;2022-08-19T06:00:33;9.27;;;4.10;;
7361;SDS011;3721;44.490;11.220;2022-08-19T06:03:08;10.73;;;4.77;;
7361;SDS011;3721;44.490;11.220;2022-08-19T06:05:36;11.60;;;4.60;;
7361;SDS011;3721;44.490;11.220;2022-08-19T06:08:02;9.57;;;4.40;;
7361;SDS011;3721;44.490;11.220;2022-08-19T06:10:29;8.37;;;4.50;;
7361;SDS011;3721;44.490;11.220;2022-08-19T06:12:55;10.90;;;4.80;;
7361;SDS011;3721;44.490;11.220;2022-08-19T06:15:21;6.63;;;3.20;;
7361;SDS011;3721;44.490;11.220;2022-08-19T06:17:51;6.10;;;3.27;;
7361;SDS011;3721;44.490;11.220;2022-08-19T06:20:17;9.50;;;3.07;;
7361;SDS011;3721;44.490;11.220;2022-08-19T06:22:45;7.07;;;2.73;;
7361;SDS011;3721;44.490;11.220;2022-08-19T06:25:13;8.03;;;3.17;;
7361;SDS011;3721;44.490;11.220;2022-08-19T06:27:40;5.90;;;2.53;;
7361;SDS011;3721;44.490;11.220;2022-08-19T06:30:06;6.93;;;3.10;;
7361;SDS011;3721;44.490;11.220;2022-08-19T06:32:32;6.60;;;3.33;;
7361;SDS011;3721;44.490;11.220;2022-08-19T06:34:58;4.90;;;2.47;;
7361;SDS011;3721;44.490;11.220;2022-08-19T06:37:23;5.40;;;2.70;;
7361;SDS011;3721;44.490;11.220;2022-08-19T06:39:49;5.87;;;2.60;;
7361;SDS011;3721;44.490;11.220;2022-08-19T06:42:15;7.83;;;2.70;;
7361;SDS011;3721;44.490;11.220;2022-08-19T06:44:44;5.43;;;3.20;;
7361;SDS011;3721;44.490;11.220;2022-08-19T06:47:13;4.30;;;2.53;;
7361;SDS011;3721;44.490;11.220;2022-08-19T06:49:44;8.37;;;3.57;;
7361;SDS011;3721;44.490;11.220;2022-08-19T06:52:10;6.23;;;3.27;;
7361;SDS011;3721;44.490;11.220;2022-08-19T06:54:38;5.20;;;2.73;;
7361;SDS011;3721;44.490;11.220;2022-08-19T06:57:04;5.17;;;2.30;;
7361;SDS011;3721;44.490;11.220;2022-08-19T06:59:31;4.03;;;2.50;;
7361;SDS011;3721;44.490;11.220;2022-08-19T07:01:58;4.17;;;2.40;;
7361;SDS011;3721;44.490;11.220;2022-08-19T07:04:32;3.47;;;1.97;;
7361;SDS011;3721;44.490;11.220;2022-08-19T07:07:04;4.60;;;2.33;;
7361;SDS011;3721;44.490;11.220;2022-08-19T07:09:35;3.80;;;2.27;;
7361;SDS011;3721;44.490;11.220;2022-08-19T07:12:02;4.50;;;2.20;;
7361;SDS011;3721;44.490;11.220;2022-08-19T07:14:29;3.40;;;1.90;;
7361;SDS011;3721;44.490;11.220;2022-08-19T07:16:56;3.13;;;2.00;;
7361;SDS011;3721;44.490;11.220;2022-08-19T07:19:23;3.17;;;1.50;;
7361;SDS011;3721;44.490;11.220;2022-08-19T07:21:52;6.63;;;1.73;;
7361;SDS011;3721;44.490;11.220;2022-08-19T07:24:19;3.63;;;1.57;;
7361;SDS011;3721;44.490;11.220;2022-08-19T07:26:49;3.00;;;1.40;;
7361;SDS011;3721;44.490;11.220;2022-08-19T07:29:16;3.00;;;1.97;;
7361;SDS011;3721;44.490;11.220;2022-08-19T07:31:43;3.00;;;1.63;;
7361;SDS011;3721;44.490;11.220;2022-08-19T07:34:10;6.13;;;1.60;;
7361;SDS011;3721;44.490;11.220;2022-08-19T07:36:37;2.90;;;1.47;;
7361;SDS011;3721;44.490;11.220;2022-08-19T07:39:16;3.13;;;1.50;;
7361;SDS011;3721;44.490;11.220;2022-08-19T07:41:44;3.73;;;1.60;;
7361;SDS011;3721;44.490;11.220;2022-08-19T07:44:11;3.07;;;1.30;;
7361;SDS011;3721;44.490;11.220;2022-08-19T07:46:39;3.57;;;1.30;;
7361;SDS011;3721;44.490;11.220;2022-08-19T07:49:09;3.07;;;1.47;;
7361;SDS011;3721;44.490;11.220;2022-08-19T07:51:42;3.17;;;1.30;;
7361;SDS011;3721;44.490;11.220;2022-08-19T07:54:09;2.97;;;1.20;;
7361;SDS011;3721;44.490;11.220;2022-08-19T07:56:36;2.47;;;1.30;;
7361;SDS011;3721;44.490;11.220;2022-08-19T07:59:02;3.33;;;1.10;;
7361;SDS011;3721;44.490;11.220;2022-08-19T08:01:28;5.00;;;2.53;;
7361;SDS011;3721;44.490;11.220;2022-08-19T08:03:55;3.20;;;2.10;;
7361;SDS011;3721;44.490;11.220;2022-08-19T08:06:40;3.50;;;2.30;;
7361;SDS011;3721;44.490;11.220;2022-08-19T08:09:26;4.83;;;2.40;;
7361;SDS011;3721;44.490;11.220;2022-08-19T08:12:02;3.60;;;1.70;;
7361;SDS011;3721;44.490;11.220;2022-08-19T08:14:37;5.13;;;1.50;;
7361;SDS011;3721;44.490;11.220;2022-08-19T08:17:24;3.50;;;1.50;;
7361;SDS011;3721;44.490;11.220;2022-08-19T08:19:52;3.43;;;1.73;;
7361;SDS011;3721;44.490;11.220;2022-08-19T08:22:19;4.87;;;1.63;;
7361;SDS011;3721;44.490;11.220;2022-08-19T08:25:04;3.00;;;1.33;;
7361;SDS011;3721;44.490;11.220;2022-08-19T08:27:35;5.10;;;1.97;;
7361;SDS011;3721;44.490;11.220;2022-08-19T08:30:09;4.00;;;1.80;;
7361;SDS011;3721;44.490;11.220;2022-08-19T08:32:38;3.33;;;1.50;;
7361;SDS011;3721;44.490;11.220;2022-08-19T08:35:05;6.03;;;2.10;;
7361;SDS011;3721;44.490;11.220;2022-08-19T08:37:33;3.60;;;1.57;;
7361;SDS011;3721;44.490;11.220;2022-08-19T08:40:01;4.00;;;1.53;;
7361;SDS011;3721;44.490;11.220;2022-08-19T08:42:32;3.00;;;1.37;;
7361;SDS011;3721;44.490;11.220;2022-08-19T08:45:12;5.33;;;1.63;;
7361;SDS011;3721;44.490;11.220;2022-08-19T08:47:41;3.80;;;1.50;;
7361;SDS011;3721;44.490;11.220;2022-08-19T08:52:48;3.60;;;1.47;;
7361;SDS011;3721;44.490;11.220;2022-08-19T08:55:21;3.67;;;1.83;;
7361;SDS011;3721;44.490;11.220;2022-08-19T09:00:24;3.90;;;1.67;;
7361;SDS011;3721;44.490;11.220;2022-08-19T09:02:57;3.10;;;1.57;;
7361;SDS011;3721;44.490;11.220;2022-08-19T09:05:30;2.77;;;1.60;;
7361;SDS011;3721;44.490;11.220;2022-08-19T09:08:08;3.60;;;1.57;;
7361;SDS011;3721;44.490;11.220;2022-08-19T09:11:00;5.70;;;1.90;;
7361;SDS011;3721;44.490;11.220;2022-08-19T09:13:34;3.83;;;1.60;;
7361;SDS011;3721;44.490;11.220;2022-08-19T09:16:21;3.30;;;1.50;;
7361;SDS011;3721;44.490;11.220;2022-08-19T09:18:52;3.87;;;1.60;;
7361;SDS011;3721;44.490;11.220;2022-08-19T09:21:20;4.50;;;1.90;;
7361;SDS011;3721;44.490;11.220;2022-08-19T09:23:47;3.00;;;1.57;;
7361;SDS011;3721;44.490;11.220;2022-08-19T09:26:14;2.90;;;1.27;;
7361;SDS011;3721;44.490;11.220;2022-08-19T09:28:43;4.97;;;1.53;;
7361;SDS011;3721;44.490;11.220;2022-08-19T09:31:11;2.60;;;1.40;;
7361;SDS011;3721;44.490;11.220;2022-08-19T09:33:39;3.23;;;1.30;;
7361;SDS011;3721;44.490;11.220;2022-08-19T09:36:09;3.37;;;1.50;;
7361;SDS011;3721;44.490;11.220;2022-08-19T09:38:36;6.17;;;1.70;;
7361;SDS011;3721;44.490;11.220;2022-08-19T09:41:06;4.13;;;1.60;;
7361;SDS011;3721;44.490;11.220;2022-08-19T09:43:41;3.43;;;1.63;;
7361;SDS011;3721;44.490;11.220;2022-08-19T09:46:09;3.77;;;1.73;;
7361;SDS011;3721;44.490;11.220;2022-08-19T09:48:35;4.00;;;1.63;;
7361;SDS011;3721;44.490;11.220;2022-08-19T09:51:05;4.00;;;1.73;;
7361;SDS011;3721;44.490;11.220;2022-08-19T09:53:36;3.00;;;1.50;;
7361;SDS011;3721;44.490;11.220;2022-08-19T09:56:03;4.20;;;2.03;;
7361;SDS011;3721;44.490;11.220;2022-08-19T09:58:31;4.03;;;1.53;;
7361;SDS011;3721;44.490;11.220;2022-08-19T10:00:57;5.77;;;1.73;;
7361;SDS011;3721;44.490;11.220;2022-08-19T10:03:25;4.77;;;1.40;;
7361;SDS011;3721;44.490;11.220;2022-08-19T10:05:52;4.07;;;1.73;;
7361;SDS011;3721;44.490;11.220;2022-08-19T10:08:19;3.60;;;1.80;;
7361;SDS011;3721;44.490;11.220;2022-08-19T10:10:53;3.50;;;1.50;;
7361;SDS011;3721;44.490;11.220;2022-08-19T10:13:20;2.77;;;1.40;;
7361;SDS011;3721;44.490;11.220;2022-08-19T10:15:48;3.43;;;1.60;;
7361;SDS011;3721;44.490;11.220;2022-08-19T10:18:18;5.40;;;1.87;;
7361;SDS011;3721;44.490;11.220;2022-08-19T10:20:46;4.70;;;1.80;;
7361;SDS011;3721;44.490;11.220;2022-08-19T10:23:13;3.67;;;1.53;;
7361;SDS011;3721;44.490;11.220;2022-08-19T10:25:40;2.80;;;1.30;;
7361;SDS011;3721;44.490;11.220;2022-08-19T10:28:06;3.07;;;1.37;;
7361;SDS011;3721;44.490;11.220;2022-08-19T10:30:32;6.00;;;1.43;;
7361;SDS011;3721;44.490;11.220;2022-08-19T10:32:58;3.00;;;1.47;;
7361;SDS011;3721;44.490;11.220;2022-08-19T10:35:24;4.43;;;1.90;;
7361;SDS011;3721;44.490;11.220;2022-08-19T10:37:52;3.50;;;1.37;;
7361;SDS011;3721;44.490;11.220;2022-08-19T10:40:18;3.67;;;1.50;;
7361;SDS011;3721;44.490;11.220;2022-08-19T10:42:44;3.47;;;1.40;;
7361;SDS011;3721;44.490;11.220;2022-08-19T10:45:10;3.17;;;1.43;;
7361;SDS011;3721;44.490;11.220;2022-08-19T10:47:35;3.73;;;1.30;;
7361;SDS011;3721;44.490;11.220;2022-08-19T10:50:02;4.67;;;1.60;;
7361;SDS011;3721;44.490;11.220;2022-08-19T10:52:48;4.50;;;1.50;;
7361;SDS011;3721;44.490;11.220;2022-08-19T10:55:14;4.10;;;1.47;;
7361;SDS011;3721;44.490;11.220;2022-08-19T10:57:59;7.13;;;1.60;;
7361;SDS011;3721;44.490;11.220;2022-08-19T11:00:25;4.53;;;1.70;;
7361;SDS011;3721;44.490;11.220;2022-08-19T11:02:51;3.07;;;1.53;;
7361;SDS011;3721;44.490;11.220;2022-08-19T11:05:17;4.77;;;1.57;;
7361;SDS011;3721;44.490;11.220;2022-08-19T11:07:44;3.67;;;1.50;;
7361;SDS011;3721;44.490;11.220;2022-08-19T11:10:11;3.00;;;1.20;;
7361;SDS011;3721;44.490;11.220;2022-08-19T11:12:38;3.03;;;1.20;;
7361;SDS011;3721;44.490;11.220;2022-08-19T11:15:06;4.70;;;1.60;;
7361;SDS011;3721;44.490;11.220;2022-08-19T11:17:35;4.20;;;1.40;;
7361;SDS011;3721;44.490;11.220;2022-08-19T11:20:09;3.07;;;1.50;;
7361;SDS011;3721;44.490;11.220;2022-08-19T11:22:39;3.80;;;1.70;;
7361;SDS011;3721;44.490;11.220;2022-08-19T11:25:05;4.27;;;1.20;;
7361;SDS011;3721;44.490;11.220;2022-08-19T11:27:32;2.80;;;1.30;;
7361;SDS011;3721;44.490;11.220;2022-08-19T11:29:58;3.90;;;1.20;;
7361;SDS011;3721;44.490;11.220;2022-08-19T11:32:25;2.87;;;1.30;;
7361;SDS011;3721;44.490;11.220;2022-08-19T11:34:51;2.73;;;1.37;;
7361;SDS011;3721;44.490;11.220;2022-08-19T11:37:17;3.23;;;1.27;;
7361;SDS011;3721;44.490;11.220;2022-08-19T11:39:43;2.90;;;1.47;;
7361;SDS011;3721;44.490;11.220;2022-08-19T11:42:09;3.00;;;1.30;;
7361;SDS011;3721;44.490;11.220;2022-08-19T11:44:53;3.00;;;1.23;;
7361;SDS011;3721;44.490;11.220;2022-08-19T11:47:20;2.60;;;1.33;;
7361;SDS011;3721;44.490;11.220;2022-08-19T11:49:47;3.63;;;1.27;;
7361;SDS011;3721;44.490;11.220;2022-08-19T11:52:12;4.83;;;1.70;;
7361;SDS011;3721;44.490;11.220;2022-08-19T11:54:38;6.20;;;1.40;;
7361;SDS011;3721;44.490;11.220;2022-08-19T11:57:04;3.20;;;1.40;;
7361;SDS011;3721;44.490;11.220;2022-08-19T11:59:30;2.77;;;1.40;;
7361;SDS011;3721;44.490;11.220;2022-08-19T12:01:56;4.20;;;1.60;;
7361;SDS011;3721;44.490;11.220;2022-08-19T12:04:22;3.00;;;1.23;;
7361;SDS011;3721;44.490;11.220;2022-08-19T12:06:48;2.90;;;1.50;;
7361;SDS011;3721;44.490;11.220;2022-08-19T12:09:15;5.80;;;1.60;;
7361;SDS011;3721;44.490;11.220;2022-08-19T12:11:42;4.13;;;1.27;;
7361;SDS011;3721;44.490;11.220;2022-08-19T12:14:09;4.67;;;1.20;;
7361;SDS011;3721;44.490;11.220;2022-08-19T12:16:36;3.90;;;1.47;;
7361;SDS011;3721;44.490;11.220;2022-08-19T12:19:03;3.50;;;1.43;;
7361;SDS011;3721;44.490;11.220;2022-08-19T12:21:30;4.00;;;1.50;;
7361;SDS011;3721;44.490;11.220;2022-08-19T12:23:57;3.13;;;1.27;;
7361;SDS011;3721;44.490;11.220;2022-08-19T12:26:25;5.53;;;1.30;;
7361;SDS011;3721;44.490;11.220;2022-08-19T12:28:52;3.23;;;1.33;;
7361;SDS011;3721;44.490;11.220;2022-08-19T12:31:18;3.23;;;1.53;;
7361;SDS011;3721;44.490;11.220;2022-08-19T12:33:44;3.90;;;1.20;;
7361;SDS011;3721;44.490;11.220;2022-08-19T12:36:12;3.50;;;1.30;;
7361;SDS011;3721;44.490;11.220;2022-08-19T12:38:40;3.10;;;1.30;;
7361;SDS011;3721;44.490;11.220;2022-08-19T12:41:06;2.63;;;1.23;;
7361;SDS011;3721;44.490;11.220;2022-08-19T12:43:35;4.13;;;1.60;;
7361;SDS011;3721;44.490;11.220;2022-08-19T12:46:03;3.90;;;1.40;;
7361;SDS011;3721;44.490;11.220;2022-08-19T12:48:30;3.90;;;1.50;;
7361;SDS011;3721;44.490;11.220;2022-08-19T12:50:56;2.63;;;1.40;;
7361;SDS011;3721;44.490;11.220;2022-08-19T12:53:22;3.40;;;1.60;;
7361;SDS011;3721;44.490;11.220;2022-08-19T12:55:48;3.20;;;1.50;;
7361;SDS011;3721;44.490;11.220;2022-08-19T12:58:20;3.10;;;1.30;;
7361;SDS011;3721;44.490;11.220;2022-08-19T13:00:46;3.27;;;1.57;;
7361;SDS011;3721;44.490;11.220;2022-08-19T13:03:14;5.23;;;1.60;;
7361;SDS011;3721;44.490;11.220;2022-08-19T13:05:40;5.37;;;1.47;;
7361;SDS011;3721;44.490;11.220;2022-08-19T13:08:06;3.20;;;1.30;;
7361;SDS011;3721;44.490;11.220;2022-08-19T13:10:33;2.33;;;1.10;;
7361;SDS011;3721;44.490;11.220;2022-08-19T13:13:00;3.10;;;1.50;;
7361;SDS011;3721;44.490;11.220;2022-08-19T13:15:32;3.90;;;1.40;;
7361;SDS011;3721;44.490;11.220;2022-08-19T13:17:59;4.00;;;1.30;;
7361;SDS011;3721;44.490;11.220;2022-08-19T13:20:25;4.83;;;1.30;;
7361;SDS011;3721;44.490;11.220;2022-08-19T13:22:51;2.83;;;1.30;;
7361;SDS011;3721;44.490;11.220;2022-08-19T13:25:18;2.57;;;1.30;;
7361;SDS011;3721;44.490;11.220;2022-08-19T13:27:45;2.60;;;1.30;;
7361;SDS011;3721;44.490;11.220;2022-08-19T13:30:11;2.70;;;1.30;;
7361;SDS011;3721;44.490;11.220;2022-08-19T13:32:57;3.30;;;1.37;;
7361;SDS011;3721;44.490;11.220;2022-08-19T13:38:13;3.10;;;1.57;;
7361;SDS011;3721;44.490;11.220;2022-08-19T13:40:40;3.60;;;1.50;;
7361;SDS011;3721;44.490;11.220;2022-08-19T13:43:06;3.33;;;1.40;;
7361;SDS011;3721;44.490;11.220;2022-08-19T13:45:34;3.43;;;1.40;;
7361;SDS011;3721;44.490;11.220;2022-08-19T13:48:01;3.90;;;1.20;;
7361;SDS011;3721;44.490;11.220;2022-08-19T13:50:32;4.30;;;1.47;;
7361;SDS011;3721;44.490;11.220;2022-08-19T13:52:59;4.47;;;1.50;;
7361;SDS011;3721;44.490;11.220;2022-08-19T13:55:26;5.37;;;1.77;;
7361;SDS011;3721;44.490;11.220;2022-08-19T13:57:53;4.37;;;1.40;;
7361;SDS011;3721;44.490;11.220;2022-08-19T14:00:20;4.20;;;1.47;;
7361;SDS011;3721;44.490;11.220;2022-08-19T14:02:50;3.33;;;1.30;;
7361;SDS011;3721;44.490;11.220;2022-08-19T14:05:16;3.67;;;1.40;;
7361;SDS011;3721;44.490;11.220;2022-08-19T14:07:43;4.20;;;1.50;;
7361;SDS011;3721;44.490;11.220;2022-08-19T14:10:11;3.13;;;1.47;;
7361;SDS011;3721;44.490;11.220;2022-08-19T14:12:37;3.53;;;1.40;;
7361;SDS011;3721;44.490;11.220;2022-08-19T14:15:05;2.60;;;1.40;;
7361;SDS011;3721;44.490;11.220;2022-08-19T14:17:33;3.60;;;1.10;;
7361;SDS011;3721;44.490;11.220;2022-08-19T14:20:03;4.33;;;1.53;;
7361;SDS011;3721;44.490;11.220;2022-08-19T14:22:35;3.67;;;1.30;;
7361;SDS011;3721;44.490;11.220;2022-08-19T14:25:02;4.00;;;1.40;;
7361;SDS011;3721;44.490;11.220;2022-08-19T14:27:30;3.27;;;1.50;;
7361;SDS011;3721;44.490;11.220;2022-08-19T14:29:57;5.33;;;1.40;;
7361;SDS011;3721;44.490;11.220;2022-08-19T14:32:24;4.30;;;1.20;;
7361;SDS011;3721;44.490;11.220;2022-08-19T14:34:52;4.70;;;1.90;;
7361;SDS011;3721;44.490;11.220;2022-08-19T14:37:18;4.30;;;1.60;;
7361;SDS011;3721;44.490;11.220;2022-08-19T14:39:44;5.33;;;1.50;;
7361;SDS011;3721;44.490;11.220;2022-08-19T14:42:10;3.57;;;1.47;;
7361;SDS011;3721;44.490;11.220;2022-08-19T14:44:36;3.80;;;1.50;;
7361;SDS011;3721;44.490;11.220;2022-08-19T14:47:02;3.27;;;1.40;;
7361;SDS011;3721;44.490;11.220;2022-08-19T14:49:28;4.60;;;1.50;;
7361;SDS011;3721;44.490;11.220;2022-08-19T14:51:54;4.10;;;1.47;;
7361;SDS011;3721;44.490;11.220;2022-08-19T14:54:21;5.73;;;1.70;;
7361;SDS011;3721;44.490;11.220;2022-08-19T14:56:47;3.10;;;1.40;;
7361;SDS011;3721;44.490;11.220;2022-08-19T14:59:13;4.30;;;1.50;;
7361;SDS011;3721;44.490;11.220;2022-08-19T15:01:39;3.47;;;1.27;;
7361;SDS011;3721;44.490;11.220;2022-08-19T15:04:05;3.40;;;1.23;;
7361;SDS011;3721;44.490;11.220;2022-08-19T15:06:31;3.03;;;1.30;;
7361;SDS011;3721;44.490;11.220;2022-08-19T15:08:57;2.90;;;1.27;;
7361;SDS011;3721;44.490;11.220;2022-08-19T15:11:24;4.63;;;1.47;;
7361;SDS011;3721;44.490;11.220;2022-08-19T15:13:53;2.60;;;1.10;;
7361;SDS011;3721;44.490;11.220;2022-08-19T15:16:20;4.07;;;1.70;;